createdAt,value
2023-04-08T00:00:10.232Z,3.93
2023-04-08T00:05:56.482Z,4.00
2023-04-08T00:11:20.731Z,4.02
2023-04-08T00:16:45.226Z,4.04
2023-04-08T00:22:09.542Z,4.03
2023-04-08T00:27:34.915Z,4.05
2023-04-08T00:32:59.515Z,4.10
2023-04-08T00:38:24.208Z,4.13
2023-04-08T00:43:48.566Z,4.15
2023-04-08T00:49:12.838Z,4.18
2023-04-08T00:54:38.837Z,4.19
2023-04-08T01:00:06.518Z,4.17
2023-04-08T01:05:49.013Z,4.14
2023-04-08T01:11:14.546Z,4.17
2023-04-08T01:16:42.808Z,4.20
2023-04-08T01:22:50.689Z,4.29
2023-04-08T01:28:18.446Z,4.39
2023-04-08T01:33:44.477Z,4.41
2023-04-08T01:39:09.650Z,4.42
2023-04-08T01:44:35.622Z,4.41
2023-04-08T01:50:01.265Z,4.42
2023-04-08T01:55:26.690Z,4.42
2023-04-08T02:00:54.447Z,4.50
2023-04-08T02:06:19.504Z,4.62
2023-04-08T02:11:44.694Z,4.76
2023-04-08T02:17:14.023Z,4.91
2023-04-08T02:22:44.357Z,5.03
2023-04-08T02:28:12.180Z,5.13
2023-04-08T02:33:37.525Z,5.09
2023-04-08T02:39:04.181Z,4.86
2023-04-08T02:44:29.544Z,4.67
2023-04-08T02:49:55.604Z,4.59
2023-04-08T02:55:19.728Z,4.56
2023-04-08T03:00:43.873Z,4.52
2023-04-08T03:06:08.334Z,4.49
2023-04-08T03:11:33.787Z,4.47
2023-04-08T03:16:58.889Z,4.48
2023-04-08T03:22:24.638Z,4.49
2023-04-08T03:27:48.464Z,4.51
2023-04-08T03:33:12.889Z,4.54
2023-04-08T03:38:36.955Z,4.55
2023-04-08T03:44:01.983Z,4.57
2023-04-08T03:49:26.359Z,4.60
2023-04-08T03:54:50.570Z,4.63
2023-04-08T04:00:15.079Z,4.65
2023-04-08T04:05:42.607Z,4.67
2023-04-08T04:11:06.912Z,4.68
2023-04-08T04:16:33.063Z,4.69
2023-04-08T04:21:57.816Z,4.72
2023-04-08T04:27:22.561Z,4.75
2023-04-08T04:32:47.223Z,4.77
2023-04-08T04:38:12.998Z,4.80
2023-04-08T04:43:37.502Z,4.81
2023-04-08T04:49:02.786Z,4.81
2023-04-08T04:54:27.274Z,4.83
2023-04-08T04:59:51.324Z,4.86
2023-04-08T05:05:15.471Z,4.88
2023-04-08T05:10:42.013Z,4.93
2023-04-08T05:16:06.764Z,4.99
2023-04-08T05:21:32.997Z,4.99
2023-04-08T05:26:58.251Z,5.01
2023-04-08T05:32:23.746Z,4.96
2023-04-08T05:37:48.760Z,4.89
2023-04-08T05:43:12.394Z,4.83
2023-04-08T05:48:36.896Z,4.78
2023-04-08T05:54:04.388Z,4.71
2023-04-08T05:59:30.574Z,4.63
2023-04-08T06:04:55.486Z,4.56
2023-04-08T06:10:21.108Z,4.57
2023-04-08T06:15:45.755Z,4.57
2023-04-08T06:21:12.068Z,4.53
2023-04-08T06:26:37.229Z,4.47
2023-04-08T06:32:03.715Z,4.49
2023-04-08T06:37:33.072Z,4.54
2023-04-08T06:43:01.196Z,4.53
2023-04-08T06:48:33.349Z,4.53
2023-04-08T06:53:58.367Z,4.50
2023-04-08T06:59:23.074Z,4.45
2023-04-08T07:04:47.543Z,4.42
2023-04-08T07:10:13.228Z,4.45
2023-04-08T07:15:37.879Z,4.46
2023-04-08T07:21:03.426Z,4.51
2023-04-08T07:26:29.358Z,4.57
2023-04-08T07:31:56.671Z,4.50
2023-04-08T07:37:22.359Z,4.36
2023-04-08T07:42:47.617Z,4.26
2023-04-08T07:48:11.601Z,4.24
2023-04-08T07:53:36.736Z,4.24
2023-04-08T07:59:01.950Z,4.32
2023-04-08T08:04:26.863Z,4.39
2023-04-08T08:09:51.470Z,4.46
2023-04-08T08:15:15.849Z,4.59
2023-04-08T08:20:39.890Z,4.71
2023-04-08T08:26:06.678Z,4.68
2023-04-08T08:31:30.839Z,4.64
2023-04-08T08:36:56.392Z,4.53
2023-04-08T08:42:25.269Z,4.50
2023-04-08T08:47:51.201Z,4.57
2023-04-08T08:53:15.845Z,4.60
2023-04-08T08:58:40.397Z,4.78
2023-04-08T09:04:13.234Z,5.10
2023-04-08T09:09:51.656Z,5.37
2023-04-08T09:15:16.723Z,5.49
2023-04-08T09:20:53.692Z,5.58
2023-04-08T09:26:24.723Z,5.62
2023-04-08T09:31:55.210Z,5.75
2023-04-08T09:37:19.423Z,5.89
2023-04-08T09:42:51.032Z,5.86
2023-04-08T09:48:24.393Z,6.14
2023-04-08T09:53:50.884Z,6.39
2023-04-08T09:59:17.828Z,6.55
2023-04-08T10:04:49.370Z,6.66
2023-04-08T10:10:14.907Z,6.52
2023-04-08T10:15:43.711Z,6.35
2023-04-08T10:21:33.773Z,6.47
2023-04-08T10:26:58.863Z,6.79
2023-04-08T10:32:30.600Z,7.05
2023-04-08T10:37:56.275Z,7.10
2023-04-08T10:43:21.550Z,7.04
2023-04-08T10:48:45.989Z,6.93
2023-04-08T10:54:18.043Z,7.05
2023-04-08T10:59:42.792Z,7.12
2023-04-08T11:05:11.314Z,7.07
2023-04-08T11:10:39.995Z,6.94
2023-04-08T11:16:17.081Z,6.75
2023-04-08T11:21:47.449Z,6.69
2023-04-08T11:27:12.353Z,6.67
2023-04-08T11:32:37.721Z,6.58
2023-04-08T11:38:05.795Z,6.67
2023-04-08T11:43:30.806Z,6.89
2023-04-08T11:49:04.392Z,7.19
2023-04-08T11:54:32.718Z,7.38
2023-04-08T11:59:57.348Z,7.28
2023-04-08T12:05:21.881Z,7.25
2023-04-08T12:10:46.100Z,7.27
2023-04-08T12:16:10.976Z,7.24
2023-04-08T12:21:35.412Z,7.16
2023-04-08T12:27:00.212Z,7.06
2023-04-08T12:32:25.952Z,7.02
2023-04-08T12:37:50.065Z,6.98
2023-04-08T12:43:14.126Z,7.00
2023-04-08T12:48:38.637Z,7.10
2023-04-08T12:54:04.510Z,7.32
2023-04-08T12:59:29.299Z,7.65
2023-04-08T13:04:54.077Z,8.01
2023-04-08T13:10:18.201Z,8.28
2023-04-08T13:15:42.382Z,8.29
2023-04-08T13:21:06.636Z,8.13
2023-04-08T13:26:31.040Z,8.00
2023-04-08T13:31:56.106Z,7.79
2023-04-08T13:37:20.588Z,7.90
2023-04-08T13:42:45.096Z,8.09
2023-04-08T13:48:09.908Z,8.21
2023-04-08T13:53:35.064Z,8.21
2023-04-08T13:58:59.817Z,8.26
2023-04-08T14:04:24.791Z,8.29
2023-04-08T14:09:49.209Z,8.41
2023-04-08T14:15:13.432Z,8.51
2023-04-08T14:20:38.825Z,8.40
2023-04-08T14:26:03.611Z,8.33
2023-04-08T14:31:28.861Z,8.30
2023-04-08T14:36:54.887Z,8.30
2023-04-08T14:42:19.637Z,8.37
2023-04-08T14:47:43.952Z,8.41
2023-04-08T14:53:08.899Z,8.49
2023-04-08T14:58:33.488Z,8.51
2023-04-08T15:03:58.364Z,8.48
2023-04-08T15:09:24.253Z,8.64
2023-04-08T15:14:48.958Z,8.63
2023-04-08T15:20:13.797Z,8.52
2023-04-08T15:25:37.716Z,8.40
2023-04-08T15:31:02.604Z,8.54
2023-04-08T15:36:26.967Z,8.75
2023-04-08T15:41:51.745Z,8.85
2023-04-08T15:47:16.724Z,9.18
2023-04-08T15:52:41.928Z,9.39
2023-04-08T15:58:06.964Z,9.28
2023-04-08T16:03:31.055Z,9.17
2023-04-08T16:08:57.094Z,9.39
2023-04-08T16:14:56.995Z,9.50
2023-04-08T16:20:57.254Z,9.34
2023-04-08T16:26:56.370Z,9.15
2023-04-08T16:32:55.076Z,8.66
2023-04-08T16:38:43.081Z,8.41
2023-04-08T16:44:07.623Z,8.40
2023-04-08T16:49:32.226Z,8.40
2023-04-08T16:54:58.075Z,8.50
2023-04-08T17:00:22.422Z,8.66
2023-04-08T17:05:46.422Z,8.76
2023-04-08T17:11:13.822Z,8.51
2023-04-08T17:16:38.197Z,8.19
2023-04-08T17:22:03.078Z,8.15
2023-04-08T17:27:27.706Z,8.08
2023-04-08T17:32:51.831Z,7.70
2023-04-08T17:38:16.486Z,7.37
2023-04-08T17:43:40.747Z,7.15
2023-04-08T17:49:05.356Z,6.83
2023-04-08T17:54:31.853Z,6.63
2023-04-08T17:59:56.374Z,6.39
2023-04-08T18:05:21.986Z,6.14
2023-04-08T18:10:46.952Z,5.90
2023-04-08T18:16:18.588Z,5.76
2023-04-08T18:21:42.956Z,5.63
2023-04-08T18:27:08.794Z,5.61
2023-04-08T18:32:33.201Z,5.56
2023-04-08T18:37:57.529Z,5.43
2023-04-08T18:43:21.863Z,5.25
2023-04-08T18:48:47.316Z,5.16
2023-04-08T18:54:11.950Z,5.18
2023-04-08T18:59:37.526Z,5.05
2023-04-08T19:05:02.043Z,4.75
2023-04-08T19:10:26.118Z,4.60
2023-04-08T19:15:51.075Z,4.52
2023-04-08T19:21:15.722Z,4.45
2023-04-08T19:26:40.023Z,4.42
2023-04-08T19:32:05.102Z,4.48
2023-04-08T19:37:30.316Z,4.56
2023-04-08T19:42:55.265Z,4.50
2023-04-08T19:48:20.935Z,4.32
2023-04-08T19:53:44.934Z,4.08
2023-04-08T19:59:11.239Z,3.83
2023-04-08T20:04:36.636Z,3.72
2023-04-08T20:10:01.592Z,3.63
2023-04-08T20:15:26.670Z,3.57
2023-04-08T20:20:51.237Z,3.55
2023-04-08T20:26:16.064Z,3.61
2023-04-08T20:31:40.500Z,3.68
2023-04-08T20:37:06.364Z,3.80
2023-04-08T20:42:30.483Z,3.96
2023-04-08T20:47:54.635Z,4.01
2023-04-08T20:53:19.810Z,3.94
2023-04-08T20:58:43.726Z,3.89
2023-04-08T21:04:08.076Z,3.76
2023-04-08T21:09:32.924Z,3.63
2023-04-08T21:14:57.675Z,3.52
2023-04-08T21:20:22.313Z,3.48
2023-04-08T21:25:46.518Z,3.44
2023-04-08T21:31:11.655Z,3.38
2023-04-08T21:36:35.762Z,3.39
2023-04-08T21:42:00.534Z,3.43
2023-04-08T21:47:25.068Z,3.49
2023-04-08T21:52:48.885Z,3.60
2023-04-08T21:58:13.126Z,3.68
2023-04-08T22:03:37.706Z,3.73
2023-04-08T22:09:02.358Z,3.73
2023-04-08T22:14:26.816Z,3.68
2023-04-08T22:19:51.466Z,3.63
2023-04-08T22:25:15.707Z,3.63
2023-04-08T22:30:39.759Z,3.63
2023-04-08T22:36:05.179Z,3.63
2023-04-08T22:41:29.137Z,3.63
2023-04-08T22:46:53.756Z,3.62
2023-04-08T22:52:18.228Z,3.60
2023-04-08T22:57:42.237Z,3.57
2023-04-08T23:03:06.228Z,3.53
2023-04-08T23:08:29.899Z,3.57
2023-04-08T23:13:54.813Z,3.59
2023-04-08T23:19:19.598Z,3.58
2023-04-08T23:24:44.110Z,3.53
2023-04-08T23:30:08.668Z,3.54
2023-04-08T23:35:32.775Z,3.55
2023-04-08T23:40:56.706Z,3.59
2023-04-08T23:46:21.209Z,3.70
2023-04-08T23:51:46.185Z,3.72
2023-04-08T23:57:10.539Z,3.64
